sensor_id;sensor_type;location;lat;lon;timestamp;temperature;humidity
58339;DHT22;68636;52.704;6.536;2023-05-13T00:01:15;12.40;99.90
58339;DHT22;68636;52.704;6.536;2023-05-13T00:03:41;12.40;99.90
58339;DHT22;68636;52.704;6.536;2023-05-13T00:06:07;12.30;99.90
58339;DHT22;68636;52.704;6.536;2023-05-13T00:08:33;12.30;99.90
58339;DHT22;68636;52.704;6.536;2023-05-13T00:10:59;12.30;99.90
58339;DHT22;68636;52.704;6.536;2023-05-13T00:13:25;12.20;99.90
58339;DHT22;68636;52.704;6.536;2023-05-13T00:15:51;12.20;99.90
58339;DHT22;68636;52.704;6.536;2023-05-13T00:18:17;12.10;99.90
58339;DHT22;68636;52.704;6.536;2023-05-13T00:20:43;12.10;99.90
58339;DHT22;68636;52.704;6.536;2023-05-13T00:23:09;12.10;99.90
58339;DHT22;68636;52.704;6.536;2023-05-13T00:25:36;12.00;99.90
58339;DHT22;68636;52.704;6.536;2023-05-13T00:28:02;12.00;99.90
58339;DHT22;68636;52.704;6.536;2023-05-13T00:30:28;12.00;99.90
58339;DHT22;68636;52.704;6.536;2023-05-13T00:32:54;11.90;99.90
58339;DHT22;68636;52.704;6.536;2023-05-13T00:35:20;11.90;99.90
58339;DHT22;68636;52.704;6.536;2023-05-13T00:37:46;11.90;99.90
58339;DHT22;68636;52.704;6.536;2023-05-13T00:40:30;11.90;99.90
58339;DHT22;68636;52.704;6.536;2023-05-13T00:42:56;11.80;99.90
58339;DHT22;68636;52.704;6.536;2023-05-13T00:45:22;11.80;99.90
58339;DHT22;68636;52.704;6.536;2023-05-13T00:47:48;11.80;99.90
58339;DHT22;68636;52.704;6.536;2023-05-13T00:50:14;11.70;99.90
58339;DHT22;68636;52.704;6.536;2023-05-13T00:52:41;11.70;99.90
58339;DHT22;68636;52.704;6.536;2023-05-13T00:55:08;11.70;99.90
58339;DHT22;68636;52.704;6.536;2023-05-13T00:57:34;11.60;99.90
58339;DHT22;68636;52.704;6.536;2023-05-13T01:00:00;11.60;99.90
58339;DHT22;68636;52.704;6.536;2023-05-13T01:05:15;11.60;99.90
58339;DHT22;68636;52.704;6.536;2023-05-13T01:10:58;11.50;99.90
58339;DHT22;68636;52.704;6.536;2023-05-13T01:13:35;11.40;99.90
58339;DHT22;68636;52.704;6.536;2023-05-13T01:16:06;11.40;99.90
58339;DHT22;68636;52.704;6.536;2023-05-13T01:18:45;11.40;99.90
58339;DHT22;68636;52.704;6.536;2023-05-13T01:21:13;11.30;99.90
58339;DHT22;68636;52.704;6.536;2023-05-13T01:23:39;11.30;99.90
58339;DHT22;68636;52.704;6.536;2023-05-13T01:26:04;11.30;99.90
58339;DHT22;68636;52.704;6.536;2023-05-13T01:28:30;11.30;99.90
58339;DHT22;68636;52.704;6.536;2023-05-13T01:30:56;11.20;99.90
58339;DHT22;68636;52.704;6.536;2023-05-13T01:33:23;11.20;99.90
58339;DHT22;68636;52.704;6.536;2023-05-13T01:35:49;11.20;99.90
58339;DHT22;68636;52.704;6.536;2023-05-13T01:38:17;11.20;99.90
58339;DHT22;68636;52.704;6.536;2023-05-13T01:40:44;11.20;99.90
58339;DHT22;68636;52.704;6.536;2023-05-13T01:43:11;11.20;99.90
58339;DHT22;68636;52.704;6.536;2023-05-13T01:45:37;11.10;99.90
58339;DHT22;68636;52.704;6.536;2023-05-13T01:48:02;11.20;99.90
58339;DHT22;68636;52.704;6.536;2023-05-13T01:50:28;11.10;99.90
58339;DHT22;68636;52.704;6.536;2023-05-13T01:52:54;11.10;99.90
58339;DHT22;68636;52.704;6.536;2023-05-13T01:55:20;11.10;99.90
58339;DHT22;68636;52.704;6.536;2023-05-13T01:57:45;11.10;99.90
58339;DHT22;68636;52.704;6.536;2023-05-13T02:00:12;11.10;99.90
58339;DHT22;68636;52.704;6.536;2023-05-13T02:02:37;11.10;99.90
58339;DHT22;68636;52.704;6.536;2023-05-13T02:05:03;11.00;99.90
58339;DHT22;68636;52.704;6.536;2023-05-13T02:07:29;11.00;99.90
58339;DHT22;68636;52.704;6.536;2023-05-13T02:09:55;11.00;99.90
58339;DHT22;68636;52.704;6.536;2023-05-13T02:12:27;10.90;99.90
58339;DHT22;68636;52.704;6.536;2023-05-13T02:14:53;10.90;99.90
58339;DHT22;68636;52.704;6.536;2023-05-13T02:17:20;10.80;99.90
58339;DHT22;68636;52.704;6.536;2023-05-13T02:19:46;10.80;99.90
58339;DHT22;68636;52.704;6.536;2023-05-13T02:22:12;10.70;99.90
58339;DHT22;68636;52.704;6.536;2023-05-13T02:24:38;10.80;99.90
58339;DHT22;68636;52.704;6.536;2023-05-13T02:27:07;10.80;99.90
58339;DHT22;68636;52.704;6.536;2023-05-13T02:29:33;10.70;99.90
58339;DHT22;68636;52.704;6.536;2023-05-13T02:31:59;10.70;99.90
58339;DHT22;68636;52.704;6.536;2023-05-13T02:34:25;10.70;99.90
58339;DHT22;68636;52.704;6.536;2023-05-13T02:36:51;10.60;99.90
58339;DHT22;68636;52.704;6.536;2023-05-13T02:39:17;10.70;99.90
58339;DHT22;68636;52.704;6.536;2023-05-13T02:41:42;10.60;99.90
58339;DHT22;68636;52.704;6.536;2023-05-13T02:44:09;10.60;99.90
58339;DHT22;68636;52.704;6.536;2023-05-13T02:46:35;10.60;99.90
58339;DHT22;68636;52.704;6.536;2023-05-13T02:49:01;10.60;99.90
58339;DHT22;68636;52.704;6.536;2023-05-13T02:51:27;10.50;99.90
58339;DHT22;68636;52.704;6.536;2023-05-13T02:53:52;10.50;99.90
58339;DHT22;68636;52.704;6.536;2023-05-13T02:56:18;10.50;99.90
58339;DHT22;68636;52.704;6.536;2023-05-13T02:58:44;10.50;99.90
58339;DHT22;68636;52.704;6.536;2023-05-13T03:01:10;10.40;99.90
58339;DHT22;68636;52.704;6.536;2023-05-13T03:03:35;10.40;99.90
58339;DHT22;68636;52.704;6.536;2023-05-13T03:06:01;10.40;99.90
58339;DHT22;68636;52.704;6.536;2023-05-13T03:08:27;10.40;99.90
58339;DHT22;68636;52.704;6.536;2023-05-13T03:10:53;10.40;99.90
58339;DHT22;68636;52.704;6.536;2023-05-13T03:13:18;10.40;99.90
58339;DHT22;68636;52.704;6.536;2023-05-13T03:15:44;10.40;99.90
58339;DHT22;68636;52.704;6.536;2023-05-13T03:18:10;10.30;99.90
58339;DHT22;68636;52.704;6.536;2023-05-13T03:20:36;10.30;99.90
58339;DHT22;68636;52.704;6.536;2023-05-13T03:23:02;10.20;99.90
58339;DHT22;68636;52.704;6.536;2023-05-13T03:25:28;10.30;99.90
58339;DHT22;68636;52.704;6.536;2023-05-13T03:27:54;10.20;99.90
58339;DHT22;68636;52.704;6.536;2023-05-13T03:30:20;10.20;99.90
58339;DHT22;68636;52.704;6.536;2023-05-13T03:32:46;10.20;99.90
58339;DHT22;68636;52.704;6.536;2023-05-13T03:35:11;10.10;99.90
58339;DHT22;68636;52.704;6.536;2023-05-13T03:37:37;10.10;99.90
58339;DHT22;68636;52.704;6.536;2023-05-13T03:40:03;10.10;99.90
58339;DHT22;68636;52.704;6.536;2023-05-13T03:42:29;10.10;99.90
58339;DHT22;68636;52.704;6.536;2023-05-13T03:44:55;10.00;99.90
58339;DHT22;68636;52.704;6.536;2023-05-13T03:47:22;10.00;99.90
58339;DHT22;68636;52.704;6.536;2023-05-13T03:49:48;10.00;99.90
58339;DHT22;68636;52.704;6.536;2023-05-13T03:52:14;9.90;99.90
58339;DHT22;68636;52.704;6.536;2023-05-13T03:54:41;9.90;99.90
58339;DHT22;68636;52.704;6.536;2023-05-13T03:57:07;9.90;99.90
58339;DHT22;68636;52.704;6.536;2023-05-13T03:59:33;9.90;99.90
58339;DHT22;68636;52.704;6.536;2023-05-13T04:01:59;9.90;99.90
58339;DHT22;68636;52.704;6.536;2023-05-13T04:04:24;9.90;99.90
58339;DHT22;68636;52.704;6.536;2023-05-13T04:06:50;9.90;99.90
58339;DHT22;68636;52.704;6.536;2023-05-13T04:09:16;9.90;99.90
58339;DHT22;68636;52.704;6.536;2023-05-13T04:11:41;9.90;99.90
58339;DHT22;68636;52.704;6.536;2023-05-13T04:14:07;10.00;99.90
58339;DHT22;68636;52.704;6.536;2023-05-13T04:16:33;9.90;99.90
58339;DHT22;68636;52.704;6.536;2023-05-13T04:18:58;10.00;99.90
58339;DHT22;68636;52.704;6.536;2023-05-13T04:21:24;10.00;99.90
58339;DHT22;68636;52.704;6.536;2023-05-13T04:23:50;10.00;99.90
58339;DHT22;68636;52.704;6.536;2023-05-13T04:26:16;10.00;99.90
58339;DHT22;68636;52.704;6.536;2023-05-13T04:28:41;10.00;99.90
58339;DHT22;68636;52.704;6.536;2023-05-13T04:31:07;10.10;99.90
58339;DHT22;68636;52.704;6.536;2023-05-13T04:33:33;10.10;99.90
58339;DHT22;68636;52.704;6.536;2023-05-13T04:35:59;10.10;99.90
58339;DHT22;68636;52.704;6.536;2023-05-13T04:38:24;10.20;99.90
58339;DHT22;68636;52.704;6.536;2023-05-13T04:40:51;10.30;99.90
58339;DHT22;68636;52.704;6.536;2023-05-13T04:43:16;10.40;99.90
58339;DHT22;68636;52.704;6.536;2023-05-13T04:45:42;10.40;99.90
58339;DHT22;68636;52.704;6.536;2023-05-13T04:48:08;10.50;99.90
58339;DHT22;68636;52.704;6.536;2023-05-13T04:50:33;10.50;99.90
58339;DHT22;68636;52.704;6.536;2023-05-13T04:52:59;10.50;99.90
58339;DHT22;68636;52.704;6.536;2023-05-13T04:55:25;10.50;99.90
58339;DHT22;68636;52.704;6.536;2023-05-13T04:57:51;10.60;99.90
58339;DHT22;68636;52.704;6.536;2023-05-13T05:00:16;10.60;99.90
58339;DHT22;68636;52.704;6.536;2023-05-13T05:02:43;10.60;99.90
58339;DHT22;68636;52.704;6.536;2023-05-13T05:05:09;10.70;99.90
58339;DHT22;68636;52.704;6.536;2023-05-13T05:07:35;10.70;99.90
58339;DHT22;68636;52.704;6.536;2023-05-13T05:10:06;10.80;99.90
58339;DHT22;68636;52.704;6.536;2023-05-13T05:12:32;10.80;99.90
58339;DHT22;68636;52.704;6.536;2023-05-13T05:14:57;10.80;99.90
58339;DHT22;68636;52.704;6.536;2023-05-13T05:17:23;10.90;99.90
58339;DHT22;68636;52.704;6.536;2023-05-13T05:19:49;10.90;99.90
58339;DHT22;68636;52.704;6.536;2023-05-13T05:22:15;11.00;99.90
58339;DHT22;68636;52.704;6.536;2023-05-13T05:24:40;11.00;99.90
58339;DHT22;68636;52.704;6.536;2023-05-13T05:27:06;11.10;99.90
58339;DHT22;68636;52.704;6.536;2023-05-13T05:29:32;11.10;99.90
58339;DHT22;68636;52.704;6.536;2023-05-13T05:31:58;11.20;99.90
58339;DHT22;68636;52.704;6.536;2023-05-13T05:34:23;11.30;99.90
58339;DHT22;68636;52.704;6.536;2023-05-13T05:36:49;11.30;99.90
58339;DHT22;68636;52.704;6.536;2023-05-13T05:39:15;11.30;99.90
58339;DHT22;68636;52.704;6.536;2023-05-13T05:41:40;11.40;99.90
58339;DHT22;68636;52.704;6.536;2023-05-13T05:44:06;11.50;99.90
58339;DHT22;68636;52.704;6.536;2023-05-13T05:46:32;11.60;99.90
58339;DHT22;68636;52.704;6.536;2023-05-13T05:48:58;11.60;99.90
58339;DHT22;68636;52.704;6.536;2023-05-13T05:51:24;11.50;99.90
58339;DHT22;68636;52.704;6.536;2023-05-13T05:53:49;11.70;99.90
58339;DHT22;68636;52.704;6.536;2023-05-13T05:56:15;11.70;99.90
58339;DHT22;68636;52.704;6.536;2023-05-13T05:58:41;11.70;99.90
58339;DHT22;68636;52.704;6.536;2023-05-13T06:01:06;11.70;99.90
58339;DHT22;68636;52.704;6.536;2023-05-13T06:03:32;11.80;99.90
58339;DHT22;68636;52.704;6.536;2023-05-13T06:05:58;11.90;99.90
58339;DHT22;68636;52.704;6.536;2023-05-13T06:08:24;11.90;99.90
58339;DHT22;68636;52.704;6.536;2023-05-13T06:10:56;12.00;99.90
58339;DHT22;68636;52.704;6.536;2023-05-13T06:13:22;12.00;99.90
58339;DHT22;68636;52.704;6.536;2023-05-13T06:15:47;12.10;99.90
58339;DHT22;68636;52.704;6.536;2023-05-13T06:18:13;12.20;99.90
58339;DHT22;68636;52.704;6.536;2023-05-13T06:20:39;12.30;99.90
58339;DHT22;68636;52.704;6.536;2023-05-13T06:23:06;12.40;99.90
58339;DHT22;68636;52.704;6.536;2023-05-13T06:25:31;12.50;99.90
58339;DHT22;68636;52.704;6.536;2023-05-13T06:27:57;12.40;99.90
58339;DHT22;68636;52.704;6.536;2023-05-13T06:30:23;12.50;99.90
58339;DHT22;68636;52.704;6.536;2023-05-13T06:32:49;12.60;99.90
58339;DHT22;68636;52.704;6.536;2023-05-13T06:35:14;12.70;99.90
58339;DHT22;68636;52.704;6.536;2023-05-13T06:37:40;12.90;99.90
58339;DHT22;68636;52.704;6.536;2023-05-13T06:40:06;13.00;99.90
58339;DHT22;68636;52.704;6.536;2023-05-13T06:42:32;13.10;99.90
58339;DHT22;68636;52.704;6.536;2023-05-13T06:45:00;13.10;99.90
58339;DHT22;68636;52.704;6.536;2023-05-13T06:47:26;13.20;99.90
58339;DHT22;68636;52.704;6.536;2023-05-13T06:49:52;13.30;99.90
58339;DHT22;68636;52.704;6.536;2023-05-13T06:52:18;13.40;99.90
58339;DHT22;68636;52.704;6.536;2023-05-13T06:54:43;13.40;99.90
58339;DHT22;68636;52.704;6.536;2023-05-13T06:57:09;13.40;99.90
58339;DHT22;68636;52.704;6.536;2023-05-13T06:59:35;13.50;99.90
58339;DHT22;68636;52.704;6.536;2023-05-13T07:02:00;13.60;99.90
58339;DHT22;68636;52.704;6.536;2023-05-13T07:04:26;13.80;99.90
58339;DHT22;68636;52.704;6.536;2023-05-13T07:06:55;13.90;99.90
58339;DHT22;68636;52.704;6.536;2023-05-13T07:09:21;14.10;99.90
58339;DHT22;68636;52.704;6.536;2023-05-13T07:11:47;14.10;99.90
58339;DHT22;68636;52.704;6.536;2023-05-13T07:14:13;14.20;99.90
58339;DHT22;68636;52.704;6.536;2023-05-13T07:16:38;14.30;99.90
58339;DHT22;68636;52.704;6.536;2023-05-13T07:19:04;14.40;99.90
58339;DHT22;68636;52.704;6.536;2023-05-13T07:21:30;14.40;99.90
58339;DHT22;68636;52.704;6.536;2023-05-13T07:23:55;14.50;99.90
58339;DHT22;68636;52.704;6.536;2023-05-13T07:26:21;14.50;99.90
58339;DHT22;68636;52.704;6.536;2023-05-13T07:28:47;14.60;99.90
58339;DHT22;68636;52.704;6.536;2023-05-13T07:31:13;14.80;99.90
58339;DHT22;68636;52.704;6.536;2023-05-13T07:33:38;14.90;99.90
58339;DHT22;68636;52.704;6.536;2023-05-13T07:36:04;14.90;99.90
58339;DHT22;68636;52.704;6.536;2023-05-13T07:38:30;15.10;99.90
58339;DHT22;68636;52.704;6.536;2023-05-13T07:40:56;15.10;99.90
58339;DHT22;68636;52.704;6.536;2023-05-13T07:43:22;15.20;99.90
58339;DHT22;68636;52.704;6.536;2023-05-13T07:45:50;15.20;99.90
58339;DHT22;68636;52.704;6.536;2023-05-13T07:48:17;15.30;99.90
58339;DHT22;68636;52.704;6.536;2023-05-13T07:50:46;15.40;99.90
58339;DHT22;68636;52.704;6.536;2023-05-13T07:53:12;15.40;99.90
58339;DHT22;68636;52.704;6.536;2023-05-13T07:55:37;15.50;99.90
58339;DHT22;68636;52.704;6.536;2023-05-13T07:58:03;15.70;99.90
58339;DHT22;68636;52.704;6.536;2023-05-13T08:00:30;15.80;99.90
58339;DHT22;68636;52.704;6.536;2023-05-13T08:02:56;16.00;99.90
58339;DHT22;68636;52.704;6.536;2023-05-13T08:05:22;16.20;99.90
58339;DHT22;68636;52.704;6.536;2023-05-13T08:12:41;16.40;99.90
58339;DHT22;68636;52.704;6.536;2023-05-13T08:15:08;16.70;99.90
58339;DHT22;68636;52.704;6.536;2023-05-13T08:17:36;16.50;99.90
58339;DHT22;68636;52.704;6.536;2023-05-13T08:20:02;16.50;99.90
58339;DHT22;68636;52.704;6.536;2023-05-13T08:22:27;16.60;99.90
58339;DHT22;68636;52.704;6.536;2023-05-13T08:24:53;16.70;99.90
58339;DHT22;68636;52.704;6.536;2023-05-13T08:27:19;16.80;99.90
58339;DHT22;68636;52.704;6.536;2023-05-13T08:29:45;16.90;99.90
58339;DHT22;68636;52.704;6.536;2023-05-13T08:32:10;17.00;99.90
58339;DHT22;68636;52.704;6.536;2023-05-13T08:34:36;17.10;99.90
58339;DHT22;68636;52.704;6.536;2023-05-13T08:37:02;17.10;99.90
58339;DHT22;68636;52.704;6.536;2023-05-13T08:39:28;17.20;99.90
58339;DHT22;68636;52.704;6.536;2023-05-13T08:41:55;17.30;99.90
58339;DHT22;68636;52.704;6.536;2023-05-13T08:44:26;17.40;99.90
58339;DHT22;68636;52.704;6.536;2023-05-13T08:47:30;17.40;99.90
58339;DHT22;68636;52.704;6.536;2023-05-13T08:49:57;17.50;99.90
58339;DHT22;68636;52.704;6.536;2023-05-13T09:14:30;18.60;99.90
58339;DHT22;68636;52.704;6.536;2023-05-13T09:17:00;18.60;99.90
58339;DHT22;68636;52.704;6.536;2023-05-13T09:19:26;18.60;99.90
58339;DHT22;68636;52.704;6.536;2023-05-13T09:21:52;18.70;99.90
58339;DHT22;68636;52.704;6.536;2023-05-13T09:24:18;18.80;99.90
58339;DHT22;68636;52.704;6.536;2023-05-13T09:26:47;18.80;99.90
58339;DHT22;68636;52.704;6.536;2023-05-13T09:29:13;18.90;99.90
58339;DHT22;68636;52.704;6.536;2023-05-13T09:31:39;19.00;99.90
58339;DHT22;68636;52.704;6.536;2023-05-13T09:34:05;19.00;99.90
58339;DHT22;68636;52.704;6.536;2023-05-13T09:36:31;19.10;99.90
58339;DHT22;68636;52.704;6.536;2023-05-13T09:38:57;19.20;99.90
58339;DHT22;68636;52.704;6.536;2023-05-13T09:41:27;19.30;99.90
58339;DHT22;68636;52.704;6.536;2023-05-13T09:43:52;19.30;99.90
58339;DHT22;68636;52.704;6.536;2023-05-13T09:46:19;19.40;99.90
58339;DHT22;68636;52.704;6.536;2023-05-13T09:48:45;19.30;99.90
58339;DHT22;68636;52.704;6.536;2023-05-13T09:51:13;19.50;99.90
58339;DHT22;68636;52.704;6.536;2023-05-13T09:53:39;19.50;99.90
58339;DHT22;68636;52.704;6.536;2023-05-13T09:56:08;19.50;99.90
58339;DHT22;68636;52.704;6.536;2023-05-13T09:58:34;19.50;99.90
58339;DHT22;68636;52.704;6.536;2023-05-13T10:01:01;19.60;99.90
58339;DHT22;68636;52.704;6.536;2023-05-13T10:03:28;19.70;99.90
58339;DHT22;68636;52.704;6.536;2023-05-13T10:05:54;19.70;99.90
58339;DHT22;68636;52.704;6.536;2023-05-13T10:08:20;19.80;99.90
58339;DHT22;68636;52.704;6.536;2023-05-13T10:10:47;19.90;99.90
58339;DHT22;68636;52.704;6.536;2023-05-13T10:13:15;19.80;99.90
58339;DHT22;68636;52.704;6.536;2023-05-13T10:15:50;19.90;99.90
58339;DHT22;68636;52.704;6.536;2023-05-13T10:18:17;20.00;99.90
58339;DHT22;68636;52.704;6.536;2023-05-13T10:20:43;20.10;99.90
58339;DHT22;68636;52.704;6.536;2023-05-13T10:23:09;20.10;99.50
58339;DHT22;68636;52.704;6.536;2023-05-13T10:25:35;20.20;99.90
58339;DHT22;68636;52.704;6.536;2023-05-13T10:28:05;20.20;99.90
58339;DHT22;68636;52.704;6.536;2023-05-13T10:30:31;20.30;97.30
58339;DHT22;68636;52.704;6.536;2023-05-13T10:32:58;20.30;98.90
58339;DHT22;68636;52.704;6.536;2023-05-13T10:35:28;20.40;98.10
58339;DHT22;68636;52.704;6.536;2023-05-13T10:43:57;20.50;98.20
58339;DHT22;68636;52.704;6.536;2023-05-13T10:46:23;20.70;98.20
58339;DHT22;68636;52.704;6.536;2023-05-13T10:48:54;20.80;98.00
58339;DHT22;68636;52.704;6.536;2023-05-13T10:51:22;20.80;94.90
58339;DHT22;68636;52.704;6.536;2023-05-13T10:53:56;20.90;95.90
58339;DHT22;68636;52.704;6.536;2023-05-13T10:56:26;20.90;94.50
58339;DHT22;68636;52.704;6.536;2023-05-13T10:58:57;21.00;95.50
58339;DHT22;68636;52.704;6.536;2023-05-13T11:01:35;21.10;94.40
58339;DHT22;68636;52.704;6.536;2023-05-13T11:04:03;21.10;93.60
58339;DHT22;68636;52.704;6.536;2023-05-13T11:08:55;21.20;94.10
58339;DHT22;68636;52.704;6.536;2023-05-13T11:13:53;21.30;93.00
58339;DHT22;68636;52.704;6.536;2023-05-13T11:16:20;21.30;92.40
58339;DHT22;68636;52.704;6.536;2023-05-13T11:18:47;21.30;86.50
58339;DHT22;68636;52.704;6.536;2023-05-13T11:21:13;21.20;87.90
58339;DHT22;68636;52.704;6.536;2023-05-13T11:23:56;21.20;88.20
58339;DHT22;68636;52.704;6.536;2023-05-13T11:26:22;21.20;90.00
58339;DHT22;68636;52.704;6.536;2023-05-13T11:29:13;21.10;89.80
58339;DHT22;68636;52.704;6.536;2023-05-13T11:34:14;21.20;90.40
58339;DHT22;68636;52.704;6.536;2023-05-13T11:36:42;21.20;90.90
58339;DHT22;68636;52.704;6.536;2023-05-13T11:39:13;21.00;90.50
58339;DHT22;68636;52.704;6.536;2023-05-13T11:41:59;21.00;91.10
58339;DHT22;68636;52.704;6.536;2023-05-13T11:44:28;21.10;91.10
58339;DHT22;68636;52.704;6.536;2023-05-13T11:46:59;21.20;91.30
58339;DHT22;68636;52.704;6.536;2023-05-13T11:49:41;21.40;90.50
58339;DHT22;68636;52.704;6.536;2023-05-13T11:52:08;21.50;90.70
58339;DHT22;68636;52.704;6.536;2023-05-13T11:57:27;21.80;89.10
58339;DHT22;68636;52.704;6.536;2023-05-13T12:00:04;22.00;90.10
58339;DHT22;68636;52.704;6.536;2023-05-13T12:02:32;21.90;90.30
58339;DHT22;68636;52.704;6.536;2023-05-13T12:05:07;21.90;90.20
58339;DHT22;68636;52.704;6.536;2023-05-13T12:07:34;21.90;86.30
58339;DHT22;68636;52.704;6.536;2023-05-13T12:10:01;21.80;87.00
58339;DHT22;68636;52.704;6.536;2023-05-13T12:12:29;21.90;87.80
58339;DHT22;68636;52.704;6.536;2023-05-13T12:14:58;21.90;87.50
58339;DHT22;68636;52.704;6.536;2023-05-13T12:17:25;22.00;85.80
58339;DHT22;68636;52.704;6.536;2023-05-13T12:20:23;22.00;84.40
58339;DHT22;68636;52.704;6.536;2023-05-13T12:22:52;22.00;83.10
58339;DHT22;68636;52.704;6.536;2023-05-13T12:28:09;22.30;84.10
58339;DHT22;68636;52.704;6.536;2023-05-13T12:30:37;22.40;84.70
58339;DHT22;68636;52.704;6.536;2023-05-13T12:33:03;22.30;80.10
58339;DHT22;68636;52.704;6.536;2023-05-13T12:35:30;22.30;79.20
58339;DHT22;68636;52.704;6.536;2023-05-13T12:38:03;22.50;81.60
58339;DHT22;68636;52.704;6.536;2023-05-13T12:40:30;22.70;82.40
58339;DHT22;68636;52.704;6.536;2023-05-13T12:42:59;22.80;81.90
58339;DHT22;68636;52.704;6.536;2023-05-13T12:45:30;22.70;80.30
58339;DHT22;68636;52.704;6.536;2023-05-13T12:47:56;22.70;81.40
58339;DHT22;68636;52.704;6.536;2023-05-13T12:50:23;22.70;76.70
58339;DHT22;68636;52.704;6.536;2023-05-13T12:52:49;22.60;76.80
58339;DHT22;68636;52.704;6.536;2023-05-13T12:55:14;22.80;79.90
58339;DHT22;68636;52.704;6.536;2023-05-13T12:57:42;22.60;77.70
58339;DHT22;68636;52.704;6.536;2023-05-13T13:00:08;22.30;76.40
58339;DHT22;68636;52.704;6.536;2023-05-13T13:02:35;22.20;77.20
58339;DHT22;68636;52.704;6.536;2023-05-13T13:05:01;22.30;78.00
58339;DHT22;68636;52.704;6.536;2023-05-13T13:07:27;22.40;76.60
58339;DHT22;68636;52.704;6.536;2023-05-13T13:09:53;22.50;77.90
58339;DHT22;68636;52.704;6.536;2023-05-13T13:12:19;22.60;75.30
58339;DHT22;68636;52.704;6.536;2023-05-13T13:14:45;22.40;74.60
58339;DHT22;68636;52.704;6.536;2023-05-13T13:17:11;22.40;77.00
58339;DHT22;68636;52.704;6.536;2023-05-13T13:19:37;22.30;75.30
58339;DHT22;68636;52.704;6.536;2023-05-13T13:22:03;22.20;76.40
58339;DHT22;68636;52.704;6.536;2023-05-13T13:24:28;22.10;76.70
58339;DHT22;68636;52.704;6.536;2023-05-13T13:26:54;22.20;71.60
58339;DHT22;68636;52.704;6.536;2023-05-13T13:29:20;22.30;73.70
58339;DHT22;68636;52.704;6.536;2023-05-13T13:31:46;22.40;74.80
58339;DHT22;68636;52.704;6.536;2023-05-13T13:34:12;22.40;73.50
58339;DHT22;68636;52.704;6.536;2023-05-13T13:36:38;22.50;74.60
58339;DHT22;68636;52.704;6.536;2023-05-13T13:39:04;22.60;74.90
58339;DHT22;68636;52.704;6.536;2023-05-13T13:41:30;22.60;74.50
58339;DHT22;68636;52.704;6.536;2023-05-13T13:43:55;22.80;75.40
58339;DHT22;68636;52.704;6.536;2023-05-13T13:46:21;22.80;74.30
58339;DHT22;68636;52.704;6.536;2023-05-13T13:48:47;22.90;74.60
58339;DHT22;68636;52.704;6.536;2023-05-13T13:51:12;22.80;70.30
58339;DHT22;68636;52.704;6.536;2023-05-13T13:53:38;22.60;69.70
58339;DHT22;68636;52.704;6.536;2023-05-13T13:56:04;22.70;70.60
58339;DHT22;68636;52.704;6.536;2023-05-13T13:58:30;22.80;72.40
58339;DHT22;68636;52.704;6.536;2023-05-13T14:00:56;23.00;69.90
58339;DHT22;68636;52.704;6.536;2023-05-13T14:03:22;23.20;72.60
58339;DHT22;68636;52.704;6.536;2023-05-13T14:05:47;22.90;68.30
58339;DHT22;68636;52.704;6.536;2023-05-13T14:08:14;22.90;70.70
58339;DHT22;68636;52.704;6.536;2023-05-13T14:10:40;22.60;68.00
58339;DHT22;68636;52.704;6.536;2023-05-13T14:13:05;22.60;71.20
58339;DHT22;68636;52.704;6.536;2023-05-13T14:15:31;22.50;68.70
58339;DHT22;68636;52.704;6.536;2023-05-13T14:17:57;22.60;69.90
58339;DHT22;68636;52.704;6.536;2023-05-13T14:20:23;22.60;68.30
58339;DHT22;68636;52.704;6.536;2023-05-13T14:22:49;22.70;65.80
58339;DHT22;68636;52.704;6.536;2023-05-13T14:25:15;22.80;68.50
58339;DHT22;68636;52.704;6.536;2023-05-13T14:27:41;22.80;66.40
58339;DHT22;68636;52.704;6.536;2023-05-13T14:30:07;22.70;66.20
58339;DHT22;68636;52.704;6.536;2023-05-13T14:32:33;22.80;67.00
58339;DHT22;68636;52.704;6.536;2023-05-13T14:34:59;22.70;67.90
58339;DHT22;68636;52.704;6.536;2023-05-13T14:37:25;22.60;67.20
58339;DHT22;68636;52.704;6.536;2023-05-13T14:39:50;22.60;68.50
58339;DHT22;68636;52.704;6.536;2023-05-13T14:42:16;22.50;68.20
58339;DHT22;68636;52.704;6.536;2023-05-13T14:44:42;22.60;69.60
58339;DHT22;68636;52.704;6.536;2023-05-13T14:47:08;22.50;69.50
58339;DHT22;68636;52.704;6.536;2023-05-13T14:49:34;22.60;70.40
58339;DHT22;68636;52.704;6.536;2023-05-13T14:52:00;22.70;70.00
58339;DHT22;68636;52.704;6.536;2023-05-13T14:54:26;22.80;70.60
58339;DHT22;68636;52.704;6.536;2023-05-13T14:56:51;22.60;68.40
58339;DHT22;68636;52.704;6.536;2023-05-13T14:59:17;22.50;66.90
58339;DHT22;68636;52.704;6.536;2023-05-13T15:01:43;22.60;68.10
58339;DHT22;68636;52.704;6.536;2023-05-13T15:04:09;22.50;69.40
58339;DHT22;68636;52.704;6.536;2023-05-13T15:06:36;22.40;66.50
58339;DHT22;68636;52.704;6.536;2023-05-13T15:09:02;22.40;65.70
58339;DHT22;68636;52.704;6.536;2023-05-13T15:11:28;22.50;68.20
58339;DHT22;68636;52.704;6.536;2023-05-13T15:13:54;22.40;65.70
58339;DHT22;68636;52.704;6.536;2023-05-13T15:16:20;22.40;66.70
58339;DHT22;68636;52.704;6.536;2023-05-13T15:18:46;22.50;67.80
58339;DHT22;68636;52.704;6.536;2023-05-13T15:21:12;22.60;68.60
58339;DHT22;68636;52.704;6.536;2023-05-13T15:23:38;22.60;67.90
58339;DHT22;68636;52.704;6.536;2023-05-13T15:26:03;22.50;67.40
58339;DHT22;68636;52.704;6.536;2023-05-13T15:28:29;22.40;68.10
58339;DHT22;68636;52.704;6.536;2023-05-13T15:30:55;22.50;69.50
58339;DHT22;68636;52.704;6.536;2023-05-13T15:33:20;22.50;69.20
58339;DHT22;68636;52.704;6.536;2023-05-13T15:35:46;22.50;68.80
58339;DHT22;68636;52.704;6.536;2023-05-13T15:38:12;22.40;68.70
58339;DHT22;68636;52.704;6.536;2023-05-13T15:40:38;22.40;70.00
58339;DHT22;68636;52.704;6.536;2023-05-13T15:43:04;22.40;69.70
58339;DHT22;68636;52.704;6.536;2023-05-13T15:45:29;22.50;69.10
58339;DHT22;68636;52.704;6.536;2023-05-13T15:47:55;22.50;69.60
58339;DHT22;68636;52.704;6.536;2023-05-13T15:50:21;22.50;69.70
58339;DHT22;68636;52.704;6.536;2023-05-13T15:52:47;22.50;68.50
58339;DHT22;68636;52.704;6.536;2023-05-13T15:55:12;22.40;66.60
58339;DHT22;68636;52.704;6.536;2023-05-13T15:57:38;22.40;68.30
58339;DHT22;68636;52.704;6.536;2023-05-13T16:00:05;22.40;68.10
58339;DHT22;68636;52.704;6.536;2023-05-13T16:02:32;22.40;68.30
58339;DHT22;68636;52.704;6.536;2023-05-13T16:05:06;22.20;66.40
58339;DHT22;68636;52.704;6.536;2023-05-13T16:07:32;22.30;67.70
58339;DHT22;68636;52.704;6.536;2023-05-13T16:09:58;22.20;68.10
58339;DHT22;68636;52.704;6.536;2023-05-13T16:12:24;22.20;68.00
58339;DHT22;68636;52.704;6.536;2023-05-13T16:14:50;22.20;68.70
58339;DHT22;68636;52.704;6.536;2023-05-13T16:17:16;22.30;69.50
58339;DHT22;68636;52.704;6.536;2023-05-13T16:19:42;22.30;69.80
58339;DHT22;68636;52.704;6.536;2023-05-13T16:22:23;22.30;70.50